Time;durP1;ratioP1;P1;durP2;ratioP2;P2;SDS_P1;SDS_P2;PMS_P1;PMS_P2;Temp;Humidity;BMP_temperature;BMP_pressure;BME280_temperature;BME280_humidity;BME280_pressure;Samples;Min_cycle;Max_cycle;Signal;HPM_P1;HPM_P2
2023/06/28 00:02:22;;;;;;;9.45;8.95;;;23.20;50.70;;;;;;5043322;28;20192;-86
2023/06/28 00:04:48;;;;;;;9.63;8.93;;;23.30;50.60;;;;;;5043526;28;20185;-85
2023/06/28 00:07:15;;;;;;;9.57;9.00;;;23.30;51.60;;;;;;5043033;28;20200;-85
2023/06/28 00:09:41;;;;;;;9.30;8.75;;;23.20;51.90;;;;;;5047230;28;20252;-84
2023/06/28 00:12:07;;;;;;;8.80;8.18;;;23.20;51.80;;;;;;5053246;28;20243;-84
2023/06/28 00:14:32;;;;;;;9.23;8.57;;;23.00;51.60;;;;;;5041795;28;20646;-85
2023/06/28 00:16:59;;;;;;;9.10;8.60;;;23.10;52.30;;;;;;5042353;28;20694;-86
2023/06/28 00:19:26;;;;;;;9.68;9.07;;;23.00;51.80;;;;;;5043327;28;20185;-85
2023/06/28 00:21:55;;;;;;;9.88;9.25;;;23.10;51.70;;;;;;5043197;28;20173;-86
2023/06/28 00:24:22;;;;;;;9.65;9.25;;;23.20;52.20;;;;;;5042275;28;20263;-84
2023/06/28 00:26:48;;;;;;;9.85;9.23;;;23.10;52.50;;;;;;5043149;28;20193;-84
2023/06/28 00:29:14;;;;;;;9.13;8.52;;;23.00;53.70;;;;;;5038097;28;20246;-85
2023/06/28 00:31:39;;;;;;;9.15;8.75;;;22.90;53.60;;;;;;5020862;28;20231;-85
2023/06/28 00:34:05;;;;;;;7.47;7.00;;;22.80;52.70;;;;;;5052494;28;20176;-85
2023/06/28 00:36:30;;;;;;;8.20;7.60;;;22.80;55.10;;;;;;5061218;28;20203;-85
2023/06/28 00:38:56;;;;;;;8.00;7.43;;;22.80;54.70;;;;;;5047674;28;20271;-85
2023/06/28 00:41:22;;;;;;;8.45;7.95;;;22.70;55.10;;;;;;5043518;28;20574;-85
2023/06/28 00:43:48;;;;;;;8.63;8.13;;;22.80;54.70;;;;;;5043183;28;20688;-84
2023/06/28 00:46:13;;;;;;;8.70;8.05;;;22.80;54.30;;;;;;5041185;28;20232;-85
2023/06/28 00:48:40;;;;;;;9.40;8.77;;;22.70;53.90;;;;;;5041659;28;20200;-86
2023/06/28 00:51:06;;;;;;;8.13;7.63;;;22.70;53.30;;;;;;5043391;28;20166;-86
2023/06/28 00:53:32;;;;;;;8.52;7.93;;;22.70;54.40;;;;;;5042835;28;20177;-85
2023/06/28 00:55:59;;;;;;;8.90;8.32;;;22.70;54.30;;;;;;5042875;28;20840;-84
2023/06/28 00:58:26;;;;;;;9.00;8.50;;;22.70;54.10;;;;;;5042416;28;20625;-84
2023/06/28 01:00:52;;;;;;;8.73;8.07;;;22.70;53.90;;;;;;5043603;28;20170;-87
2023/06/28 01:03:18;;;;;;;8.05;7.55;;;22.60;53.40;;;;;;5049300;28;20315;-86
2023/06/28 01:05:52;;;;;;;7.90;7.30;;;22.60;55.10;;;;;;5055239;28;20188;-84
2023/06/28 01:08:19;;;;;;;8.80;8.20;;;22.60;55.80;;;;;;5053875;28;20184;-84
2023/06/28 01:10:45;;;;;;;8.27;7.78;;;22.50;54.60;;;;;;5062740;28;20699;-83
2023/06/28 01:13:11;;;;;;;8.60;7.90;;;22.50;54.50;;;;;;5061738;28;20201;-84
2023/06/28 01:15:37;;;;;;;9.10;7.47;;;22.50;54.60;;;;;;5061295;28;20176;-85
2023/06/28 01:18:02;;;;;;;8.05;7.30;;;22.50;54.50;;;;;;5056524;28;20176;-85
2023/06/28 01:20:30;;;;;;;8.15;7.65;;;22.50;54.70;;;;;;5022985;28;20189;-84
2023/06/28 01:22:56;;;;;;;8.50;7.90;;;22.50;53.10;;;;;;5026168;28;20205;-84
2023/06/28 01:25:22;;;;;;;7.50;7.10;;;22.60;53.30;;;;;;5042259;28;20189;-85
2023/06/28 01:27:48;;;;;;;7.82;7.03;;;22.50;54.00;;;;;;5041172;28;20189;-84
2023/06/28 01:30:15;;;;;;;7.25;6.85;;;22.60;54.50;;;;;;5029130;28;20193;-84
2023/06/28 01:32:42;;;;;;;6.60;6.18;;;22.50;55.00;;;;;;5041030;28;20204;-84
2023/06/28 01:35:09;;;;;;;6.70;6.03;;;22.50;56.30;;;;;;5041395;28;20562;-86
2023/06/28 01:37:35;;;;;;;6.50;6.00;;;22.50;58.40;;;;;;5039153;28;20251;-86
2023/06/28 01:40:02;;;;;;;6.10;5.70;;;22.40;58.60;;;;;;5059364;28;20176;-85
2023/06/28 01:42:28;;;;;;;6.28;5.68;;;22.20;58.30;;;;;;5060106;28;20735;-84
2023/06/28 01:44:54;;;;;;;6.80;6.30;;;22.20;59.50;;;;;;5042978;28;20211;-85
2023/06/28 01:47:20;;;;;;;6.80;6.30;;;22.20;57.60;;;;;;5021078;28;20238;-85
2023/06/28 01:49:46;;;;;;;7.65;7.15;;;22.20;57.00;;;;;;5053251;28;20534;-84
2023/06/28 01:52:12;;;;;;;8.48;7.95;;;22.20;56.10;;;;;;5058964;28;20267;-84
2023/06/28 01:54:37;;;;;;;7.80;7.30;;;22.00;53.60;;;;;;5059056;28;20303;-84
2023/06/28 01:57:03;;;;;;;7.07;6.57;;;22.00;54.10;;;;;;5058918;28;20535;-85
2023/06/28 01:59:30;;;;;;;6.72;6.25;;;22.10;55.70;;;;;;5058296;28;20180;-85
2023/06/28 02:01:57;;;;;;;7.10;6.60;;;22.10;56.70;;;;;;5041837;28;20200;-85
2023/06/28 02:04:22;;;;;;;6.13;5.57;;;22.20;55.60;;;;;;5047995;28;20690;-85
2023/06/28 02:06:48;;;;;;;5.93;5.43;;;22.10;57.00;;;;;;5039875;28;20312;-85
2023/06/28 02:09:14;;;;;;;6.47;5.75;;;22.10;57.80;;;;;;5040921;28;20200;-85
2023/06/28 02:11:39;;;;;;;5.78;5.38;;;22.00;58.70;;;;;;5040378;28;20284;-84
2023/06/28 02:14:05;;;;;;;5.80;5.40;;;22.00;59.40;;;;;;5040007;28;20192;-84
2023/06/28 02:16:31;;;;;;;5.63;5.22;;;22.00;60.40;;;;;;5031980;28;20193;-85
2023/06/28 02:18:57;;;;;;;7.45;5.57;;;21.90;61.40;;;;;;5020465;28;20241;-85
2023/06/28 02:21:23;;;;;;;6.22;5.70;;;21.90;60.50;;;;;;5019024;28;20689;-86
2023/06/28 02:23:49;;;;;;;5.45;5.05;;;21.80;61.10;;;;;;5018793;28;20186;-85
2023/06/28 02:26:15;;;;;;;5.97;5.57;;;21.70;61.40;;;;;;5019739;28;20209;-85
2023/06/28 02:28:41;;;;;;;5.68;5.18;;;21.70;60.80;;;;;;5018262;28;20181;-85
2023/06/28 02:31:07;;;;;;;5.72;5.28;;;21.80;59.90;;;;;;5029761;28;20195;-86
2023/06/28 02:33:32;;;;;;;6.07;5.55;;;21.70;61.70;;;;;;5037693;28;20199;-86
2023/06/28 02:35:58;;;;;;;6.78;6.18;;;21.70;60.00;;;;;;5037801;28;20264;-85
2023/06/28 02:38:23;;;;;;;7.20;6.63;;;21.70;57.30;;;;;;5030312;28;20181;-86
2023/06/28 02:40:49;;;;;;;5.80;5.30;;;21.70;56.90;;;;;;5019930;28;20210;-86
2023/06/28 02:43:15;;;;;;;5.25;4.95;;;21.70;61.00;;;;;;5021416;28;20221;-84
2023/06/28 02:45:40;;;;;;;5.43;5.05;;;21.60;61.40;;;;;;5033298;28;20189;-85
2023/06/28 02:48:06;;;;;;;5.90;5.40;;;21.50;61.50;;;;;;5041394;28;20223;-84
2023/06/28 02:50:31;;;;;;;5.40;5.00;;;21.40;61.20;;;;;;5043880;28;20188;-84
2023/06/28 02:52:57;;;;;;;5.60;5.15;;;21.40;62.00;;;;;;5043763;28;20201;-85
2023/06/28 02:55:23;;;;;;;6.00;5.60;;;21.40;62.10;;;;;;5043817;28;20182;-84
2023/06/28 02:57:48;;;;;;;5.65;5.25;;;21.50;61.90;;;;;;5050308;28;20238;-84
2023/06/28 03:00:14;;;;;;;6.47;5.88;;;21.60;61.70;;;;;;5052411;28;20198;-86
2023/06/28 03:02:40;;;;;;;5.70;5.28;;;21.60;61.80;;;;;;5043896;28;20184;-84
2023/06/28 03:05:06;;;;;;;5.60;5.20;;;21.60;61.80;;;;;;5044171;28;20196;-85
2023/06/28 03:07:31;;;;;;;5.72;5.32;;;21.60;62.10;;;;;;5043621;28;20196;-85
2023/06/28 03:09:58;;;;;;;6.18;5.57;;;21.60;62.60;;;;;;5042708;28;20173;-86
2023/06/28 03:12:24;;;;;;;6.00;5.60;;;21.20;62.70;;;;;;5043605;28;20197;-84
2023/06/28 03:14:49;;;;;;;5.55;5.15;;;21.10;62.90;;;;;;5036396;28;20272;-85
2023/06/28 03:17:19;;;;;;;5.82;5.47;;;21.10;63.90;;;;;;5024525;28;20224;-85
2023/06/28 03:19:45;;;;;;;6.03;5.53;;;21.20;63.70;;;;;;5024459;28;20176;-84
2023/06/28 03:22:10;;;;;;;8.43;5.50;;;21.20;63.10;;;;;;5024501;28;20213;-85
2023/06/28 03:24:37;;;;;;;5.88;5.38;;;21.30;63.20;;;;;;5023387;28;20174;-86
2023/06/28 03:27:03;;;;;;;7.13;5.57;;;21.40;63.50;;;;;;5022873;28;20205;-83
2023/06/28 03:29:29;;;;;;;7.13;6.45;;;21.30;63.50;;;;;;5022450;28;20201;-83
2023/06/28 03:31:55;;;;;;;6.53;5.60;;;21.40;64.10;;;;;;5038678;28;20212;-85
2023/06/28 03:34:21;;;;;;;5.53;5.13;;;21.30;64.20;;;;;;5041012;28;20233;-84
2023/06/28 03:36:47;;;;;;;6.10;5.70;;;21.40;64.10;;;;;;5032864;28;20205;-84
2023/06/28 03:39:13;;;;;;;6.10;5.55;;;21.40;62.20;;;;;;5035017;28;20173;-85
2023/06/28 03:41:39;;;;;;;6.85;5.72;;;21.50;61.60;;;;;;5041221;28;20181;-86
2023/06/28 03:44:05;;;;;;;5.80;5.30;;;21.50;62.50;;;;;;5040782;28;20231;-85
2023/06/28 03:46:31;;;;;;;6.05;5.45;;;21.50;63.00;;;;;;5041759;28;20196;-85
2023/06/28 03:48:56;;;;;;;7.43;5.70;;;21.50;63.60;;;;;;5042394;28;20778;-86
2023/06/28 03:51:22;;;;;;;6.68;5.55;;;21.50;63.70;;;;;;5041647;28;20205;-85
2023/06/28 03:53:48;;;;;;;6.35;5.53;;;21.40;63.70;;;;;;5037262;28;20200;-85
2023/06/28 03:56:14;;;;;;;5.70;5.20;;;21.40;63.90;;;;;;5024941;28;20248;-85
2023/06/28 03:58:40;;;;;;;6.20;5.32;;;21.40;63.80;;;;;;5043301;28;20266;-86
2023/06/28 04:01:06;;;;;;;7.47;5.35;;;21.40;64.00;;;;;;5042837;28;20173;-88
2023/06/28 04:03:31;;;;;;;5.75;5.35;;;21.40;63.80;;;;;;5042408;28;20208;-84
2023/06/28 04:05:57;;;;;;;6.72;5.15;;;21.40;63.70;;;;;;5042921;28;20197;-85
2023/06/28 04:08:26;;;;;;;6.40;5.03;;;21.50;64.60;;;;;;5033707;28;20178;-84
2023/06/28 04:10:54;;;;;;;5.18;4.88;;;21.50;65.00;;;;;;5023633;28;20180;-86
2023/06/28 04:13:20;;;;;;;5.60;5.10;;;21.50;66.00;;;;;;5030912;28;20192;-85
2023/06/28 04:15:46;;;;;;;5.50;5.05;;;21.50;65.50;;;;;;5041723;28;20173;-85
2023/06/28 04:18:11;;;;;;;6.15;5.60;;;21.40;64.40;;;;;;5040711;28;20168;-85
2023/06/28 04:20:37;;;;;;;6.13;5.72;;;21.40;64.60;;;;;;5039334;28;20204;-85
2023/06/28 04:23:02;;;;;;;6.50;5.88;;;21.40;64.40;;;;;;5037776;28;20204;-84
2023/06/28 04:25:28;;;;;;;6.45;5.85;;;21.40;63.90;;;;;;5043055;28;20177;-85
2023/06/28 04:27:54;;;;;;;6.53;5.88;;;21.40;65.10;;;;;;5042600;28;20232;-84
2023/06/28 04:30:19;;;;;;;8.48;5.43;;;21.20;64.60;;;;;;5039855;28;20242;-85
2023/06/28 04:32:45;;;;;;;5.35;4.90;;;21.10;65.20;;;;;;5023184;28;20639;-85
2023/06/28 04:35:13;;;;;;;5.72;5.05;;;21.10;66.40;;;;;;5021594;28;20185;-84
2023/06/28 04:37:40;;;;;;;5.72;5.28;;;21.10;65.70;;;;;;5026190;28;20217;-84
2023/06/28 04:40:07;;;;;;;6.55;4.80;;;21.10;66.00;;;;;;5031590;28;20655;-84
2023/06/28 04:42:34;;;;;;;5.90;5.30;;;21.10;66.40;;;;;;5030911;28;20802;-85
2023/06/28 04:45:00;;;;;;;10.23;5.43;;;20.90;67.10;;;;;;5022927;28;20201;-87
2023/06/28 04:47:27;;;;;;;6.35;5.25;;;20.90;67.20;;;;;;5027879;28;20291;-86
2023/06/28 04:49:54;;;;;;;9.80;5.95;;;20.90;67.50;;;;;;5023768;28;20177;-87
2023/06/28 04:52:21;;;;;;;6.18;5.30;;;21.00;66.30;;;;;;5050529;28;20200;-87
2023/06/28 04:54:47;;;;;;;6.00;5.43;;;21.10;65.80;;;;;;5061034;28;20169;-86
2023/06/28 04:57:14;;;;;;;5.68;5.35;;;21.30;65.20;;;;;;5067099;28;20192;-87
2023/06/28 04:59:40;;;;;;;7.47;5.47;;;21.40;64.30;;;;;;5073539;28;20175;-87
2023/06/28 05:02:06;;;;;;;6.18;5.68;;;21.50;64.00;;;;;;5072872;28;20176;-86
2023/06/28 05:04:35;;;;;;;6.15;5.43;;;21.50;63.90;;;;;;5067374;28;20193;-86
2023/06/28 05:07:06;;;;;;;6.85;5.53;;;21.50;64.70;;;;;;5052944;28;20201;-86
2023/06/28 05:09:33;;;;;;;9.52;5.47;;;21.50;65.10;;;;;;5052065;28;20231;-87
2023/06/28 05:12:00;;;;;;;7.90;5.68;;;21.50;65.50;;;;;;5051386;28;20218;-88
2023/06/28 05:14:27;;;;;;;5.72;5.32;;;21.40;65.00;;;;;;5032898;28;20684;-86
2023/06/28 05:16:52;;;;;;;6.57;5.97;;;21.30;63.80;;;;;;5017651;28;20223;-87
2023/06/28 05:19:18;;;;;;;6.30;5.80;;;21.40;63.70;;;;;;5016608;28;20594;-86
2023/06/28 05:21:44;;;;;;;6.20;5.60;;;21.40;63.20;;;;;;5014358;28;20541;-86
2023/06/28 05:24:10;;;;;;;6.18;5.63;;;21.40;63.30;;;;;;5015109;28;20707;-87
2023/06/28 05:26:35;;;;;;;6.55;5.95;;;21.50;63.20;;;;;;5012900;28;20265;-86
2023/06/28 05:29:01;;;;;;;6.22;5.68;;;21.60;63.70;;;;;;5015157;28;20205;-85
2023/06/28 05:31:26;;;;;;;6.10;5.60;;;21.70;62.40;;;;;;5016024;28;20559;-87
2023/06/28 05:33:52;;;;;;;6.80;6.15;;;21.80;63.30;;;;;;5014291;28;20671;-86
2023/06/28 05:36:22;;;;;;;7.22;6.57;;;21.90;60.20;;;;;;5015622;28;20208;-87
2023/06/28 05:38:48;;;;;;;6.75;6.25;;;21.80;59.40;;;;;;5028052;28;20189;-86
2023/06/28 05:41:15;;;;;;;7.13;6.60;;;21.80;58.70;;;;;;5036918;28;20177;-88
2023/06/28 05:43:45;;;;;;;6.85;6.40;;;21.90;57.30;;;;;;5035702;28;20203;-87
2023/06/28 05:46:11;;;;;;;7.50;6.80;;;21.90;58.20;;;;;;5026877;28;20213;-87
2023/06/28 05:48:37;;;;;;;7.20;6.55;;;21.80;57.80;;;;;;5047392;28;20184;-86
2023/06/28 05:51:03;;;;;;;6.47;5.90;;;21.90;58.20;;;;;;5056140;28;20180;-87
2023/06/28 05:53:29;;;;;;;5.93;5.63;;;22.00;58.90;;;;;;5055037;28;20266;-87
2023/06/28 05:55:55;;;;;;;13.77;6.63;;;22.00;58.60;;;;;;5056314;28;20203;-87
2023/06/28 05:58:21;;;;;;;29.85;9.45;;;22.00;60.40;;;;;;5034230;28;20182;-87
2023/06/28 06:00:47;;;;;;;23.95;8.23;;;22.00;62.70;;;;;;5032176;28;20187;-87
2023/06/28 06:03:13;;;;;;;14.35;6.03;;;22.00;64.00;;;;;;5042973;28;20188;-87
2023/06/28 06:05:39;;;;;;;9.82;6.10;;;22.10;63.70;;;;;;5025864;28;20253;-86
2023/06/28 06:08:05;;;;;;;9.23;6.05;;;22.10;63.20;;;;;;5033538;28;20193;-86
2023/06/28 06:10:31;;;;;;;9.02;6.07;;;22.10;63.50;;;;;;5027328;28;20266;-87
2023/06/28 06:12:56;;;;;;;6.50;5.90;;;22.00;63.90;;;;;;5036769;28;20189;-87
2023/06/28 06:15:22;;;;;;;6.53;5.93;;;22.00;65.90;;;;;;5017726;28;20188;-86
2023/06/28 06:17:49;;;;;;;8.18;6.05;;;22.00;64.50;;;;;;5016000;28;20197;-86
2023/06/28 06:20:15;;;;;;;6.07;5.53;;;22.00;63.10;;;;;;5013003;28;20177;-88
2023/06/28 06:22:44;;;;;;;9.20;5.78;;;22.00;63.90;;;;;;5013296;28;20648;-87
2023/06/28 06:25:10;;;;;;;7.15;5.97;;;22.10;62.70;;;;;;5017152;28;20185;-86
2023/06/28 06:27:37;;;;;;;10.27;6.60;;;22.20;60.90;;;;;;5020507;28;20959;-84
2023/06/28 06:30:04;;;;;;;8.68;7.40;;;22.20;59.70;;;;;;5021388;28;20268;-87
2023/06/28 06:32:30;;;;;;;7.65;6.95;;;22.20;57.10;;;;;;5022067;28;20256;-87
2023/06/28 06:34:58;;;;;;;7.95;7.25;;;22.30;56.80;;;;;;5033789;28;20966;-87
2023/06/28 06:37:27;;;;;;;7.43;6.93;;;22.20;55.90;;;;;;5033391;28;20197;-87
2023/06/28 06:39:54;;;;;;;7.53;6.60;;;22.20;55.90;;;;;;5015763;28;20540;-87
2023/06/28 06:42:19;;;;;;;7.68;7.28;;;22.30;55.90;;;;;;5024073;28;20197;-87
2023/06/28 06:44:45;;;;;;;8.20;7.60;;;22.30;54.80;;;;;;5046886;28;20191;-88
2023/06/28 06:47:10;;;;;;;8.07;7.55;;;22.30;54.90;;;;;;5053918;28;20200;-86
2023/06/28 06:49:36;;;;;;;9.20;8.50;;;22.40;54.10;;;;;;5044023;28;20197;-89
2023/06/28 06:52:02;;;;;;;11.30;7.32;;;22.20;53.10;;;;;;5035766;28;20276;-86
2023/06/28 06:54:29;;;;;;;8.23;7.60;;;22.20;53.80;;;;;;5035625;28;20177;-88
2023/06/28 06:56:56;;;;;;;8.77;8.07;;;22.30;52.10;;;;;;5036559;28;20185;-86
2023/06/28 06:59:26;;;;;;;8.25;7.65;;;22.30;52.10;;;;;;5036895;28;20226;-87
2023/06/28 07:01:52;;;;;;;7.70;7.00;;;22.20;51.80;;;;;;5036314;28;20264;-86
2023/06/28 07:04:19;;;;;;;7.38;6.80;;;22.10;52.50;;;;;;5036637;28;20187;-87
2023/06/28 07:06:46;;;;;;;8.10;7.15;;;22.20;52.00;;;;;;5037237;28;20287;-85
2023/06/28 07:09:15;;;;;;;7.68;6.93;;;22.40;50.80;;;;;;5035257;28;20196;-87
2023/06/28 07:11:41;;;;;;;9.15;8.10;;;22.60;50.60;;;;;;5034871;28;20292;-88
2023/06/28 07:14:07;;;;;;;9.00;8.23;;;22.60;49.80;;;;;;5033423;28;20260;-86
2023/06/28 07:16:33;;;;;;;8.38;7.78;;;22.70;49.60;;;;;;5034563;28;20524;-87
2023/06/28 07:18:59;;;;;;;10.77;8.32;;;22.90;49.90;;;;;;5034602;28;20181;-88
2023/06/28 07:21:24;;;;;;;10.57;8.20;;;22.80;49.80;;;;;;5035018;28;20807;-87
2023/06/28 07:23:50;;;;;;;10.18;8.70;;;22.80;49.10;;;;;;5032800;28;20515;-88
2023/06/28 07:26:17;;;;;;;8.95;8.15;;;22.90;47.90;;;;;;5017941;28;20210;-87
2023/06/28 07:28:43;;;;;;;9.10;8.60;;;23.10;47.00;;;;;;5015603;28;20177;-87
2023/06/28 07:31:08;;;;;;;9.52;8.73;;;23.20;47.40;;;;;;5016038;28;20182;-88
2023/06/28 07:33:34;;;;;;;10.10;9.27;;;23.40;45.90;;;;;;5016742;28;20184;-87
2023/06/28 07:36:00;;;;;;;10.27;9.27;;;23.40;45.90;;;;;;5019186;28;20201;-87
2023/06/28 07:38:26;;;;;;;10.90;10.20;;;23.50;45.30;;;;;;5023875;28;20197;-87
2023/06/28 07:40:53;;;;;;;10.20;9.50;;;23.50;46.20;;;;;;5047717;28;20172;-88
2023/06/28 07:43:19;;;;;;;10.05;9.35;;;23.30;45.70;;;;;;5038823;28;20600;-86
2023/06/28 07:45:45;;;;;;;9.32;8.70;;;23.40;45.90;;;;;;5038598;28;20177;-88
2023/06/28 07:48:11;;;;;;;9.65;9.15;;;23.30;45.10;;;;;;5037031;28;20562;-86
2023/06/28 07:50:36;;;;;;;10.05;9.35;;;23.50;46.10;;;;;;5038148;28;20594;-87
2023/06/28 07:53:02;;;;;;;9.63;8.95;;;23.60;45.30;;;;;;5038165;28;20222;-88
2023/06/28 07:55:29;;;;;;;10.38;9.57;;;23.80;43.90;;;;;;5038290;28;20211;-88
2023/06/28 07:57:58;;;;;;;11.18;10.45;;;23.90;43.20;;;;;;5031531;28;20540;-82
2023/06/28 08:00:25;;;;;;;10.90;10.38;;;24.10;41.80;;;;;;5045863;28;20260;-89
2023/06/28 08:02:50;;;;;;;11.73;11.02;;;24.20;42.00;;;;;;5059297;28;20211;-90
2023/06/28 08:05:16;;;;;;;12.68;11.98;;;24.30;42.10;;;;;;5059115;28;20184;-89
2023/06/28 08:07:42;;;;;;;12.90;12.10;;;24.40;40.60;;;;;;5053168;28;20189;-90
2023/06/28 08:10:08;;;;;;;13.55;12.63;;;24.20;40.50;;;;;;5038532;28;20176;-90
2023/06/28 08:12:33;;;;;;;13.60;12.65;;;24.20;39.60;;;;;;5036447;28;20193;-89
2023/06/28 08:14:59;;;;;;;13.10;12.20;;;24.00;40.80;;;;;;5036707;28;20559;-91
2023/06/28 08:17:25;;;;;;;12.10;11.25;;;23.90;41.30;;;;;;5037664;28;20193;-90
2023/06/28 08:19:50;;;;;;;12.07;11.38;;;23.90;42.00;;;;;;5038857;28;20175;-88
2023/06/28 08:22:16;;;;;;;13.00;12.00;;;23.90;41.40;;;;;;5050847;28;20203;-87
2023/06/28 08:24:42;;;;;;;12.57;11.38;;;23.80;41.20;;;;;;5049178;28;20315;-88
2023/06/28 08:27:07;;;;;;;12.23;11.30;;;23.80;42.30;;;;;;5036623;28;20201;-87
2023/06/28 08:29:33;;;;;;;12.10;11.35;;;23.90;41.60;;;;;;5017457;28;20181;-88
2023/06/28 08:31:59;;;;;;;12.77;11.98;;;24.20;40.80;;;;;;5018385;28;20201;-88
2023/06/28 08:34:24;;;;;;;12.63;11.90;;;24.40;39.60;;;;;;5018726;28;20174;-87
2023/06/28 08:36:50;;;;;;;12.38;11.68;;;24.40;38.70;;;;;;5051984;28;20219;-88
2023/06/28 08:39:16;;;;;;;13.05;12.15;;;24.50;39.20;;;;;;5024927;28;20192;-89
2023/06/28 08:41:43;;;;;;;13.60;12.60;;;24.80;39.00;;;;;;5025116;28;20181;-88
2023/06/28 08:44:13;;;;;;;12.90;12.23;;;24.70;38.70;;;;;;5038190;28;20184;-86
2023/06/28 08:46:46;;;;;;;13.07;12.32;;;24.70;38.70;;;;;;5037418;28;20244;-88
2023/06/28 08:49:13;;;;;;;12.80;12.15;;;25.00;38.50;;;;;;5040758;28;20219;-87
2023/06/28 08:51:39;;;;;;;13.23;12.32;;;25.30;38.60;;;;;;5046829;28;20287;-88
2023/06/28 08:54:06;;;;;;;12.52;11.45;;;25.50;37.70;;;;;;5042179;28;20248;-88
2023/06/28 08:56:32;;;;;;;12.55;11.85;;;25.60;36.90;;;;;;5040759;28;20204;-88
2023/06/28 08:58:58;;;;;;;15.82;13.60;;;25.70;36.50;;;;;;5041063;28;20189;-87
2023/06/28 09:01:24;;;;;;;15.45;13.38;;;25.80;37.60;;;;;;5055289;28;20187;-89
2023/06/28 09:03:50;;;;;;;13.10;12.35;;;25.80;37.30;;;;;;5062624;28;20192;-89
2023/06/28 09:06:16;;;;;;;13.40;12.60;;;26.00;37.10;;;;;;5043595;28;20344;-89
2023/06/28 09:08:43;;;;;;;13.25;12.35;;;26.00;36.80;;;;;;5035238;28;20177;-88
2023/06/28 09:11:11;;;;;;;12.95;12.15;;;26.10;37.60;;;;;;5047613;28;20184;-89
2023/06/28 09:13:40;;;;;;;14.10;11.98;;;26.20;36.30;;;;;;5059313;28;20176;-89
2023/06/28 09:16:09;;;;;;;15.77;13.18;;;26.50;36.40;;;;;;5041001;28;20220;-87
2023/06/28 09:18:35;;;;;;;13.20;12.38;;;26.50;35.90;;;;;;5037516;28;20535;-88
2023/06/28 09:21:01;;;;;;;12.32;11.63;;;26.20;36.20;;;;;;5036559;28;20184;-87
2023/06/28 09:23:34;;;;;;;12.98;12.05;;;26.00;36.80;;;;;;5038960;28;20177;-87
2023/06/28 09:26:00;;;;;;;13.18;11.93;;;25.90;36.20;;;;;;5037587;28;20185;-87
2023/06/28 09:28:34;;;;;;;11.65;10.75;;;26.00;36.80;;;;;;5030306;28;20366;-89
2023/06/28 09:31:00;;;;;;;12.05;11.30;;;26.10;35.40;;;;;;5029642;28;20185;-89
2023/06/28 09:33:27;;;;;;;13.18;12.38;;;26.30;34.50;;;;;;5053367;28;20215;-87
2023/06/28 09:35:57;;;;;;;13.88;13.20;;;26.60;33.30;;;;;;5056805;28;20232;-88
2023/06/28 09:38:23;;;;;;;13.32;12.50;;;26.70;33.50;;;;;;5048398;28;20501;-87
2023/06/28 09:40:59;;;;;;;14.02;12.90;;;26.40;35.20;;;;;;5036894;28;20665;-89
2023/06/28 09:43:32;;;;;;;13.23;12.60;;;25.80;36.40;;;;;;5036844;28;20171;-87
2023/06/28 09:46:16;;;;;;;12.38;11.68;;;25.70;36.70;;;;;;5035731;28;20654;-87
2023/06/28 09:48:44;;;;;;;12.07;11.40;;;25.70;36.30;;;;;;5037083;28;20216;-87
2023/06/28 09:51:16;;;;;;;12.73;11.80;;;25.80;35.80;;;;;;5037030;28;20208;-87
2023/06/28 09:53:52;;;;;;;11.48;10.80;;;25.70;35.60;;;;;;5037935;28;20685;-87
2023/06/28 09:56:19;;;;;;;10.75;10.15;;;25.70;35.60;;;;;;5037805;28;20201;-88
2023/06/28 09:58:48;;;;;;;12.15;11.55;;;25.60;35.90;;;;;;5033696;28;20174;-89
2023/06/28 10:01:15;;;;;;;12.52;11.82;;;25.70;36.30;;;;;;5030748;28;20177;-90
2023/06/28 10:03:42;;;;;;;12.75;11.85;;;26.00;36.00;;;;;;5033855;28;20200;-89
2023/06/28 10:06:10;;;;;;;12.88;12.02;;;26.40;35.40;;;;;;5016688;28;20229;-87
2023/06/28 10:08:36;;;;;;;13.73;12.98;;;27.00;34.30;;;;;;5013705;28;20702;-88
2023/06/28 10:11:07;;;;;;;14.73;13.65;;;27.50;34.00;;;;;;5013362;28;20185;-88
2023/06/28 10:13:33;;;;;;;14.27;13.27;;;27.40;33.00;;;;;;5022471;28;20639;-91
2023/06/28 10:16:13;;;;;;;13.65;12.80;;;27.60;32.80;;;;;;5013549;28;20177;-88
2023/06/28 10:18:39;;;;;;;14.18;13.45;;;27.40;32.80;;;;;;5014629;28;20228;-88
2023/06/28 10:21:07;;;;;;;13.85;13.05;;;27.70;32.90;;;;;;5015877;28;20212;-87
2023/06/28 10:23:37;;;;;;;14.00;13.20;;;27.90;32.50;;;;;;5016790;28;20264;-87
2023/06/28 10:26:03;;;;;;;12.73;12.18;;;27.00;32.40;;;;;;5019128;28;20830;-89
2023/06/28 10:28:31;;;;;;;13.75;13.07;;;26.70;32.80;;;;;;5039825;28;20189;-89
2023/06/28 10:30:58;;;;;;;15.25;14.50;;;27.10;32.90;;;;;;5054698;28;20690;-89
2023/06/28 10:33:25;;;;;;;17.27;16.35;;;27.70;30.80;;;;;;5036612;28;20738;-88
2023/06/28 10:35:52;;;;;;;18.55;17.55;;;28.20;30.00;;;;;;5016220;28;20667;-88
2023/06/28 10:38:18;;;;;;;18.40;17.60;;;28.30;30.00;;;;;;5016809;28;20269;-89
2023/06/28 10:40:47;;;;;;;20.85;19.63;;;28.90;29.70;;;;;;5015943;28;20193;-88
2023/06/28 10:43:32;;;;;;;22.45;21.15;;;28.90;28.90;;;;;;5026397;28;20180;-89
2023/06/28 10:45:57;;;;;;;21.17;20.08;;;29.10;29.40;;;;;;5032305;28;20186;-88
2023/06/28 10:48:25;;;;;;;25.77;23.67;;;29.50;29.30;;;;;;5017958;28;20201;-84
2023/06/28 10:50:56;;;;;;;21.60;20.70;;;29.60;29.70;;;;;;5040453;28;20177;-86
2023/06/28 10:53:27;;;;;;;21.25;20.25;;;29.40;29.70;;;;;;5055264;28;20203;-88
2023/06/28 10:56:13;;;;;;;21.33;20.33;;;29.20;29.50;;;;;;5055321;28;20611;-88
2023/06/28 10:58:38;;;;;;;20.15;19.42;;;29.10;30.90;;;;;;5016879;28;20265;-89
2023/06/28 11:01:06;;;;;;;21.45;20.35;;;28.80;30.90;;;;;;5027771;28;20253;-87
2023/06/28 11:03:43;;;;;;;20.65;19.75;;;29.20;31.30;;;;;;5033203;28;20226;-88
2023/06/28 11:06:13;;;;;;;21.40;20.25;;;29.50;30.10;;;;;;5035074;28;20197;-86
2023/06/28 11:08:41;;;;;;;20.92;19.92;;;29.40;30.30;;;;;;5025431;28;20235;-87
2023/06/28 11:11:09;;;;;;;21.17;19.95;;;29.40;30.00;;;;;;5020090;28;20181;-86
2023/06/28 11:13:45;;;;;;;20.55;19.65;;;29.40;30.50;;;;;;5017320;28;20205;-87
2023/06/28 11:16:18;;;;;;;22.10;21.08;;;28.90;30.10;;;;;;5017045;28;20197;-87
2023/06/28 11:18:45;;;;;;;19.75;18.73;;;29.20;30.20;;;;;;5017595;28;20181;-88
2023/06/28 11:21:24;;;;;;;19.98;19.08;;;29.30;30.60;;;;;;5018321;28;20177;-87
2023/06/28 11:23:56;;;;;;;20.45;19.67;;;29.50;30.50;;;;;;5025748;28;20202;-87
2023/06/28 11:26:33;;;;;;;21.15;20.15;;;29.50;31.10;;;;;;5049053;28;20193;-88
2023/06/28 11:28:59;;;;;;;20.60;19.52;;;29.60;30.30;;;;;;5049218;28;20177;-86
2023/06/28 11:31:35;;;;;;;21.23;20.27;;;29.20;31.40;;;;;;5038144;28;20197;-87
2023/06/28 11:34:01;;;;;;;20.85;20.05;;;29.40;30.90;;;;;;5024636;28;20182;-86
2023/06/28 11:36:27;;;;;;;21.20;19.88;;;29.30;31.30;;;;;;5019829;28;20217;-87
2023/06/28 11:38:53;;;;;;;21.70;20.65;;;29.50;31.40;;;;;;5032490;28;20240;-86
2023/06/28 11:41:19;;;;;;;21.45;20.45;;;29.70;30.70;;;;;;5036769;28;20266;-87
2023/06/28 11:43:47;;;;;;;20.83;19.63;;;29.60;31.00;;;;;;5034885;28;20184;-88
2023/06/28 11:46:20;;;;;;;22.10;21.15;;;29.70;31.30;;;;;;5038700;28;20659;-86
2023/06/28 11:48:49;;;;;;;21.45;20.55;;;29.80;31.30;;;;;;5036526;28;20201;-87
2023/06/28 11:51:15;;;;;;;22.13;21.00;;;29.80;31.00;;;;;;5037149;28;20185;-88
2023/06/28 11:53:42;;;;;;;21.75;20.75;;;30.30;30.60;;;;;;5037000;28;20173;-88
2023/06/28 11:56:07;;;;;;;24.05;21.75;;;30.80;29.90;;;;;;5030555;28;20204;-87
2023/06/28 11:58:34;;;;;;;21.73;20.73;;;31.40;29.20;;;;;;5023847;28;20185;-88
2023/06/28 12:01:02;;;;;;;21.50;20.52;;;31.60;28.50;;;;;;5033488;28;20192;-88
2023/06/28 12:03:31;;;;;;;23.00;20.92;;;31.40;28.50;;;;;;5035252;28;20631;-88
2023/06/28 12:05:57;;;;;;;21.73;20.63;;;31.10;28.90;;;;;;5030960;28;20185;-87
2023/06/28 12:08:23;;;;;;;22.75;21.20;;;31.10;29.30;;;;;;5033966;28;20192;-87
2023/06/28 12:10:49;;;;;;;21.35;20.25;;;31.10;28.50;;;;;;5034758;28;20173;-87
2023/06/28 12:13:22;;;;;;;20.88;19.98;;;31.10;28.80;;;;;;5034332;28;20205;-86
2023/06/28 12:15:48;;;;;;;21.25;20.35;;;30.70;28.40;;;;;;5034962;28;20177;-87
2023/06/28 12:18:14;;;;;;;21.98;21.00;;;30.80;28.80;;;;;;5037304;28;20227;-88
2023/06/28 12:20:39;;;;;;;21.77;20.67;;;30.60;29.50;;;;;;5043247;28;20208;-88
2023/06/28 12:23:12;;;;;;;21.20;20.30;;;31.00;29.00;;;;;;5035887;28;20240;-87
2023/06/28 12:25:44;;;;;;;22.27;21.38;;;30.80;29.40;;;;;;5034859;28;20176;-87
2023/06/28 12:28:14;;;;;;;22.80;21.90;;;31.10;29.30;;;;;;5039968;28;20276;-87
2023/06/28 12:30:40;;;;;;;21.77;20.88;;;31.20;29.00;;;;;;5038501;28;20184;-87
2023/06/28 12:33:07;;;;;;;22.38;21.15;;;31.60;28.80;;;;;;5040372;28;20231;-86
2023/06/28 12:35:33;;;;;;;22.17;20.98;;;31.60;29.40;;;;;;5032984;28;20203;-86
2023/06/28 12:38:04;;;;;;;21.85;20.85;;;31.40;28.60;;;;;;5020114;28;20309;-87